KABI/ABI METAR and TAF weather

Enter ICAO airport designator
Station Type Date Time Source
KABI METAR 2020/08/11 18:52 UTC NOAA

KABI 111852Z 21014G23KT 10SM CLR 36/17 A2996 RMK AO2 SLP114 T03610172


Station Type Date Time Source
KABI Decoded METAR 2020/08/11 18:52 UTC NOAA

ABILENE REGIONAL AIRPORT, TX, United States (KABI) 32-25N 099-41W 548M
Aug 11, 2020 - 02:52 PM EDT / 2020.08.11 1852 UTC
Wind: from the SSW (210 degrees) at 16 MPH (14 KT) gusting to 26 MPH (23 KT):0
Visibility: 10 mile(s):0
Sky conditions: clear
Temperature: 97.0 F (36.1 C)
Heat index: 98.4 F (36.9 C):1
Dew Point: 63.0 F (17.2 C)
Relative Humidity: 32%
Pressure (altimeter): 29.96 in. Hg (1014 hPa)
ob: KABI 111852Z 21014G23KT 10SM CLR 36/17 A2996 RMK AO2 SLP114 T03610172
cycle: 19

Station Type Date Time Source
KABI TAF 2020/08/11 18:28 UTC NOAA

TAF KABI 111725Z 1118/1218 19015G22KT P6SM SCT150
FM120100 15009KT P6SM SKC
FM121500 21011G18KT P6SM SKC

Example: see airport list